Black Canyon (237) Station Data

Red Flag Warning: No
Fire Weather Zone: 250
SDGE Region: North East
Lat/Lon: 33.099/-116.828

Observations

Time Wind Speed/Gust Temp(F) RH Fuel Moist Fuel Temp(F) Dewpt(F) Tmax(F) Tmin(F) Accum Precip 10-min Precip SL Press(mb)
4/26 2:40am 276 0 G 1 53° 74% - - 45° 55.5° 51.5° - - -
4/26 2:30am 160 1 G 2 54° 73% - - 45° 55.5° 51.5° - - -
4/26 2:20am 24 1 G 2 54° 73% - - 46° 55.5° 51.5° - - -
4/26 2:10am 28 1 G 2 53° 75% - - 46° 55.5° 51.5° - - -
4/26 2:00am 346 1 G 2 52° 77% - - 45° 55.5° 51.5° - - -
4/26 1:50am 151 2 G 3 52° 76% - - 45° 55.5° 51.5° - - -
4/26 1:40am 145 2 G 4 54° 72% - - 45° 55.5° 51.6° - - -
4/26 1:30am 142 2 G 3 53° 74% - - 46° 55.5° 51.6° - - -
4/26 1:20am 142 3 G 5 52° 78% - - 46° 55.5° 51.6° - - -
4/26 1:10am 133 3 G 4 52° 79% - - 46° 55.5° 51.6° - - -
4/26 1:00am 154 4 G 7 53° 77% - - 46° 55.5° 51.6° - - -
4/26 12:50am 149 2 G 9 54° 71% - - 45° 55.5° 53.6° - - -
4/26 12:40am 33 4 G 6 55° 71% - - 46° 55.5° 53.6° - - -
4/26 12:30am 298 1 G 3 54° 74% - - 46° 55.4° 53.6° - - -
4/26 12:20am 143 2 G 4 54° 74% - - 46° 55.4° 53.6° - - -
4/26 12:10am 13 1 G 4 55° 72% - - 46° 55.4° 53.9° - - -
4/26 12:00am 15 2 G 5 54° 74% - - 46° 65.1° 51.6° - - -
4/25 11:50pm 259 0 G 1 54° 74% - - 46° 65.1° 51.6° - - -
4/25 11:40pm 272 2 G 2 55° 74% - - 46° 65.1° 51.6° - - -
4/25 11:30pm 79 0 G 2 54° 77% - - 46° 65.1° 51.6° - - -
4/25 11:20pm 343 1 G 3 54° 76% - - 46° 65.1° 51.6° - - -
4/25 11:10pm 17 3 G 7 55° 74% - - 46° 65.1° 51.6° - - -
4/25 11:00pm 69 4 G 7 55° 73% - - 46° 65.1° 51.6° - - -
4/25 10:50pm 73 5 G 7 54° 74% - - 46° 65.1° 51.6° - - -
4/25 10:40pm 80 6 G 8 54° 74% - - 46° 65.1° 51.6° - - -
4/25 10:30pm 77 4 G 6 55° 72% - - 46° 65.1° 51.6° - - -
4/25 10:20pm 68 5 G 6 56° 70% - - 46° 65.1° 51.6° - - -
4/25 10:10pm 59 5 G 6 55° 70% - - 46° 65.1° 51.6° - - -
4/25 10:00pm 64 5 G 7 55° 69% - - 45° 65.1° 51.6° - - -
4/25 9:50pm 61 3 G 5 56° 65% - - 44° 65.1° 51.6° - - -
4/25 9:40pm 51 2 G 3 56° 64% - - 44° 65.1° 51.6° - - -
4/25 9:30pm 77 1 G 2 56° 64% - - 44° 65.1° 51.6° - - -
4/25 9:20pm 91 2 G 3 55° 66% - - 44° 65.1° 51.6° - - -
4/25 9:10pm 109 1 G 2 55° 68% - - 45° 65.1° 51.6° - - -
4/25 9:00pm 98 2 G 3 55° 68% - - 45° 65.1° 51.6° - - -
4/25 8:50pm 113 2 G 3 55° 69% - - 45° 65.1° 51.6° - - -
4/25 8:40pm 105 4 G 6 55° 70% - - 45° 65.1° 51.6° - - -
4/25 8:30pm 139 1 G 3 56° 68% - - 45° 65.1° 51.6° - - -
4/25 8:20pm 13 1 G 2 56° 67% - - 45° 65.1° 51.6° - - -
4/25 8:10pm 47 1 G 2 56° 68% - - 45° 65.1° 51.6° - - -
4/25 8:00pm 22 1 G 2 56° 68% - - 45° 65.1° 51.6° - - -
4/25 7:50pm 328 1 G 2 56° 66% - - 45° 65.1° 51.6° - - -
4/25 7:40pm 335 0 G 2 57° 66% - - 45° 65.1° 51.6° - - -
4/25 7:30pm 250 1 G 2 57° 65% - - 45° 65.1° 51.6° - - -
4/25 7:20pm 215 2 G 4 57° 65% - - 46° 65.1° 51.6° - - -
4/25 7:10pm 244 2 G 5 58° 64% - - 46° 65.1° 51.6° - - -
4/25 7:00pm 212 3 G 6 58° 63% - - 46° 65.1° 51.6° - - -
4/25 6:50pm 198 3 G 6 59° 64% - - 47° 65.1° 51.6° - - -
4/25 6:40pm 198 4 G 8 59° 64% - - 47° 65.1° 51.6° - - -
4/25 6:30pm 244 4 G 9 60° 64% - - 47° 65.1° 51.6° - - -
4/25 6:20pm 225 4 G 9 60° 63% - - 47° 65.1° 51.6° - - -
4/25 6:10pm 257 5 G 9 60° 63% - - 47° 65.1° 51.6° - - -
4/25 6:00pm 256 4 G 9 60° 62% - - 47° 65.1° 51.6° - - -
4/25 5:50pm 255 4 G 9 61° 61% - - 47° 65.1° 51.6° - - -
4/25 5:40pm 238 4 G 8 61° 61% - - 48° 65.1° 51.6° - - -
4/25 5:30pm 258 5 G 10 62° 61% - - 48° 65.1° 51.6° - - -
4/25 5:20pm 249 4 G 9 63° 60% - - 49° 65.1° 51.6° - - -
4/25 5:10pm 248 4 G 10 63° 60% - - 48° 65.1° 51.6° - - -
4/25 5:00pm 243 5 G 10 62° 60% - - 48° 65.1° 51.6° - - -
4/25 4:50pm 268 5 G 9 63° 58% - - 48° 65.1° 51.6° - - -
4/25 4:40pm 262 5 G 10 63° 57% - - 48° 65.1° 51.6° - - -
4/25 4:30pm 228 6 G 14 64° 57% - - 48° 65.1° 51.6° - - -
4/25 4:20pm 222 6 G 11 64° 57% - - 48° 65.1° 51.6° - - -
4/25 4:10pm 224 6 G 15 63° 58% - - 48° 65.1° 51.6° - - -
4/25 4:00pm 274 3 G 7 63° 58% - - 48° 65.1° 51.6° - - -
4/25 3:50pm 253 5 G 11 63° 59% - - 48° 65.1° 51.6° - - -
4/25 3:40pm 236 4 G 9 63° 59% - - 48° 65.1° 51.6° - - -
4/25 3:30pm 259 4 G 11 62° 60% - - 48° 65.1° 51.6° - - -
4/25 3:20pm 262 6 G 11 62° 60% - - 48° 65.1° 51.6° - - -
4/25 3:10pm 262 6 G 10 63° 60% - - 49° 65.1° 51.6° - - -
4/25 3:00pm 238 5 G 12 63° 60% - - 48° 65.1° 51.6° - - -
4/25 2:50pm 237 6 G 11 63° 59% - - 48° 65.1° 51.6° - - -
4/25 2:40pm 229 4 G 8 63° 58% - - 48° 65.1° 51.6° - - -
4/25 2:30pm 274 5 G 11 62° 58% - - 48° 65.1° 51.6° - - -
4/25 2:20pm 272 3 G 8 64° 55% - - 47° 65.1° 51.6° - - -
4/25 2:10pm 243 5 G 11 63° 56% - - 47° 65.1° 51.6° - - -
4/25 2:00pm 219 6 G 12 63° 56% - - 47° 65.1° 51.6° - - -
4/25 1:50pm 269 4 G 9 63° 56% - - 47° 65.1° 51.6° - - -
4/25 1:40pm 292 4 G 7 63° 55% - - 47° 65.1° 51.6° - - -
4/25 1:30pm 267 4 G 9 64° 53% - - 47° 65.1° 51.6° - - -
4/25 1:20pm 256 4 G 9 64° 51% - - 46° 65° 51.6° - - -
4/25 1:10pm 272 5 G 10 64° 51% - - 46° 64.8° 51.6° - - -
4/25 1:00pm 249 7 G 13 64° 52% - - 46° 64.8° 51.6° - - -
4/25 12:50pm 265 4 G 8 64° 51% - - 46° 64.7° 51.6° - - -
4/25 12:40pm 217 5 G 10 64° 51% - - 45° 64.7° 51.6° - - -
4/25 12:30pm 275 4 G 14 63° 52% - - 45° 63.6° 51.6° - - -
4/25 12:20pm 266 5 G 14 62° 53% - - 45° 62.9° 51.6° - - -
4/25 12:10pm 262 5 G 11 62° 54% - - 45° 62.9° 51.6° - - -
4/25 12:00pm 214 5 G 9 62° 55% - - 45° 62.9° 51.6° - - -
4/25 11:50am 258 5 G 10 62° 55% - - 46° 62.9° 51.6° - - -
4/25 11:40am 226 4 G 9 62° 54% - - 45° 62.2° 51.6° - - -
4/25 11:30am 286 3 G 9 62° 55% - - 45° 62.2° 51.6° - - -
4/25 11:20am 300 4 G 8 61° 56% - - 45° 61.4° 51.6° - - -
4/25 11:10am 273 3 G 7 61° 56% - - 45° 61.4° 51.6° - - -
4/25 11:00am 226 4 G 9 60° 58% - - 45° 60.8° 51.6° - - -
4/25 10:50am 215 5 G 10 60° 59% - - 46° 60.8° 51.6° - - -
4/25 10:40am 281 4 G 11 60° 58% - - 46° 60.8° 51.6° - - -
4/25 10:30am 254 3 G 10 60° 60% - - 46° 60.8° 51.6° - - -
4/25 10:20am 206 4 G 8 58° 68% - - 47° 59.3° 51.6° - - -
4/25 10:10am 194 6 G 9 57° 70% - - 47° 57.8° 51.6° - - -
4/25 10:00am 205 4 G 7 57° 69% - - 47° 57.8° 51.6° - - -
4/25 9:50am 197 6 G 10 57° 69% - - 47° 57.5° 51.6° - - -
4/25 9:40am 185 5 G 9 56° 73% - - 47° 57.1° 51.6° - - -
4/25 9:30am 183 6 G 12 56° 74% - - 48° 56.4° 51.6° - - -
4/25 9:20am 187 7 G 11 56° 75% - - 48° 56.4° 51.6° - - -
4/25 9:10am 188 6 G 11 56° 74% - - 48° 56.4° 51.6° - - -
4/25 9:00am 186 5 G 10 55° 77% - - 48° 55.8° 51.6° - - -
4/25 8:50am 185 7 G 10 54° 80% - - 48° 54.7° 51.6° - - -
4/25 8:40am 173 6 G 10 54° 82% - - 49° 54.4° 51.6° - - -
4/25 8:30am 163 7 G 10 54° 83% - - 49° 54.1° 51.6° - - -
4/25 8:20am 167 7 G 10 53° 85% - - 49° 53.9° 51.6° - - -
4/25 8:10am 167 8 G 12 53° 86% - - 49° 53.3° 51.6° - - -
4/25 8:00am 168 7 G 12 53° 87% - - 49° 53.3° 51.6° - - -
4/25 7:50am 172 7 G 11 53° 89% - - 50° 53.3° 51.6° - - -
4/25 7:40am 171 7 G 11 53° 93% - - 51° 53.3° 51.6° - - -
4/25 7:30am 173 6 G 10 52° 95% - - 51° 53.3° 51.6° - - -
4/25 7:20am 169 6 G 10 52° 95% - - 51° 53.3° 51.6° - - -
4/25 7:10am 168 5 G 10 52° 95% - - 51° 53.3° 51.6° - - -
4/25 7:00am 177 5 G 9 52° 95% - - 51° 53.3° 51.6° - - -
4/25 6:50am 171 7 G 11 52° 95% - - 51° 53.3° 51.6° - - -
4/25 6:40am 170 7 G 11 52° 95% - - 51° 53.3° 51.6° - - -
4/25 6:30am 165 7 G 12 52° 94% - - 50° 53.3° 51.6° - - -
4/25 6:20am 165 7 G 10 52° 93% - - 50° 53.3° 51.6° - - -
4/25 6:10am 165 6 G 9 52° 93% - - 50° 53.3° 51.6° - - -
4/25 6:00am 170 5 G 9 52° 92% - - 50° 53.3° 51.6° - - -
4/25 5:50am 167 5 G 8 52° 92% - - 50° 53.3° 51.6° - - -
4/25 5:40am 167 5 G 8 52° 92% - - 50° 53.3° 51.6° - - -
4/25 5:30am 169 4 G 9 52° 91% - - 49° 53.3° 51.6° - - -
4/25 5:20am 162 6 G 9 52° 90% - - 49° 53.3° 51.6° - - -
4/25 5:10am 155 5 G 9 52° 88% - - 48° 53.3° 51.6° - - -
4/25 5:00am 162 4 G 7 52° 87% - - 48° 53.3° 51.6° - - -
4/25 4:50am 158 6 G 11 52° 88% - - 48° 53.3° 51.6° - - -
4/25 4:40am 162 6 G 10 52° 87% - - 48° 53.3° 51.7° - - -
4/25 4:30am 163 6 G 10 52° 86% - - 48° 53.3° 51.8° - - -
4/25 4:20am 167 6 G 12 52° 85% - - 48° 53.3° 51.8° - - -
4/25 4:10am 166 6 G 11 52° 85% - - 48° 53.3° 51.9° - - -
4/25 4:00am 172 7 G 11 52° 86% - - 48° 53.3° 51.9° - - -
4/25 3:50am 164 9 G 14 52° 86% - - 48° 53.3° 52° - - -
4/25 3:40am 166 9 G 14 52° 86% - - 48° 53.3° 52° - - -
4/25 3:30am 167 9 G 17 52° 87% - - 48° 53.3° 52.1° - - -
4/25 3:20am 162 9 G 13 52° 91% - - 50° 53.3° 52.1° - - -
4/25 3:10am 175 6 G 11 52° 93% - - 50° 53.3° 52.1° - - -
4/25 3:00am 176 6 G 10 52° 94% - - 51° 53.3° 52.1° - - -
4/25 2:50am 180 7 G 11 52° 94% - - 51° 53.3° 52.1° - - -
4/25 2:40am 182 6 G 12 52° 92% - - 50° 53.3° 52.1° - - -
4/25 2:30am 184 6 G 11 53° 89% - - 49° 53.3° 52.1° - - -
4/25 2:20am 173 6 G 10 53° 86% - - 48° 53.3° 52.1° - - -
4/25 2:10am 169 7 G 13 53° 85% - - 48° 53.3° 52.1° - - -
4/25 2:00am 169 8 G 12 53° 85% - - 48° 53.3° 52.1° - - -
4/25 1:50am 177 6 G 11 53° 85% - - 48° 53.3° 52.1° - - -
4/25 1:40am 173 7 G 11 52° 86% - - 48° 53.3° 52.1° - - -
4/25 1:30am 164 8 G 14 52° 86% - - 48° 53.3° 52.1° - - -
4/25 1:20am 164 9 G 15 52° 85% - - 48° 53.3° 52.1° - - -
4/25 1:10am 168 9 G 14 52° 86% - - 48° 53.3° 52.1° - - -
4/25 1:00am 176 8 G 13 52° 90% - - 49° 53.3° 52.1° - - -
4/25 12:50am 175 7 G 14 53° 86% - - 49° 53.3° 52.4° - - -
4/25 12:40am 166 6 G 11 53° 84% - - 48° 53.3° 52.8° - - -
4/25 12:30am 163 5 G 9 53° 83% - - 48° 53.3° 52.9° - - -
4/25 12:20am 170 5 G 9 53° 83% - - 48° 53.3° 52.9° - - -
4/25 12:10am 167 5 G 9 53° 84% - - 48° 53.3° 52.9° - - -
4/25 12:00am 165 7 G 13 53° 84% - - 48° 68.4° 49.5° - - -
4/24 11:50pm 173 7 G 11 53° 84% - - 48° 68.4° 49.5° - - -
4/24 11:40pm 177 7 G 11 53° 84% - - 48° 68.4° 49.5° - - -
4/24 11:30pm 191 6 G 10 53° 84% - - 49° 68.4° 49.5° - - -
4/24 11:20pm 184 6 G 10 53° 85% - - 49° 68.4° 49.5° - - -
4/24 11:10pm 187 7 G 10 53° 85% - - 49° 68.4° 49.5° - - -
4/24 11:00pm 195 6 G 10 53° 85% - - 49° 68.4° 49.5° - - -
4/24 10:50pm 185 6 G 10 54° 85% - - 49° 68.4° 49.5° - - -
4/24 10:40pm 182 7 G 11 54° 85% - - 49° 68.4° 49.5° - - -
4/24 10:30pm 196 5 G 10 54° 84% - - 50° 68.4° 49.5° - - -
4/24 10:20pm 202 6 G 9 54° 83% - - 49° 68.4° 49.5° - - -
4/24 10:10pm 196 5 G 8 54° 82% - - 49° 68.4° 49.5° - - -
4/24 10:00pm 193 4 G 6 54° 82% - - 49° 68.4° 49.5° - - -
4/24 9:50pm 195 4 G 5 54° 83% - - 49° 68.4° 49.5° - - -
4/24 9:40pm 197 3 G 5 55° 83% - - 49° 68.4° 49.5° - - -
4/24 9:30pm 226 3 G 6 55° 82% - - 49° 68.4° 49.5° - - -
4/24 9:20pm 231 3 G 6 55° 83% - - 49° 68.4° 49.5° - - -
4/24 9:10pm 244 3 G 6 55° 83% - - 49° 68.4° 49.5° - - -
4/24 9:00pm 247 3 G 5 55° 83% - - 49° 68.4° 49.5° - - -
4/24 8:50pm 255 3 G 6 55° 83% - - 50° 68.4° 49.5° - - -
4/24 8:40pm 263 3 G 6 55° 83% - - 50° 68.4° 49.5° - - -
4/24 8:30pm 249 3 G 7 55° 83% - - 50° 68.4° 49.5° - - -
4/24 8:20pm 247 2 G 6 55° 83% - - 50° 68.4° 49.5° - - -
4/24 8:10pm 266 4 G 7 55° 83% - - 50° 68.4° 49.5° - - -
4/24 8:00pm 267 3 G 6 55° 83% - - 50° 68.4° 49.5° - - -
4/24 7:50pm 266 3 G 6 55° 83% - - 50° 68.4° 49.5° - - -
4/24 7:40pm 263 3 G 6 55° 82% - - 50° 68.4° 49.5° - - -
4/24 7:30pm 268 3 G 7 56° 82% - - 50° 68.4° 49.5° - - -
4/24 7:20pm 263 4 G 8 56° 81% - - 50° 68.4° 49.5° - - -
4/24 7:10pm 264 4 G 8 56° 80% - - 50° 68.4° 49.5° - - -
4/24 7:00pm 265 4 G 9 57° 79% - - 50° 68.4° 49.5° - - -
4/24 6:50pm 268 4 G 7 57° 78% - - 51° 68.4° 49.5° - - -
4/24 6:40pm 258 4 G 11 58° 76% - - 51° 68.4° 49.5° - - -
4/24 6:30pm 251 5 G 10 59° 75% - - 51° 68.4° 49.5° - - -
4/24 6:20pm 228 5 G 10 59° 74% - - 51° 68.4° 49.5° - - -
4/24 6:10pm 244 5 G 10 60° 73% - - 51° 68.4° 49.5° - - -
4/24 6:00pm 242 5 G 10 60° 72% - - 51° 68.4° 49.5° - - -